sensor_id;sensor_type;location;lat;lon;timestamp;pressure;altitude;pressure_sealevel;temperature;humidity
26043;BME280;13818;52.156;5.382;2023-04-06T00:01:31;101519.28;;;4.82;100.00
26043;BME280;13818;52.156;5.382;2023-04-06T00:03:59;101520.19;;;4.80;100.00
26043;BME280;13818;52.156;5.382;2023-04-06T00:06:31;101521.97;;;4.78;100.00
26043;BME280;13818;52.156;5.382;2023-04-06T00:09:01;101517.59;;;4.73;100.00
26043;BME280;13818;52.156;5.382;2023-04-06T00:11:28;101514.16;;;4.68;100.00
26043;BME280;13818;52.156;5.382;2023-04-06T00:13:59;101513.31;;;4.65;100.00
26043;BME280;13818;52.156;5.382;2023-04-06T00:16:26;101516.84;;;4.62;100.00
26043;BME280;13818;52.156;5.382;2023-04-06T00:18:58;101512.47;;;4.60;100.00
26043;BME280;13818;52.156;5.382;2023-04-06T00:21:32;101509.88;;;4.56;100.00
26043;BME280;13818;52.156;5.382;2023-04-06T00:24:04;101510.78;;;4.54;100.00
26043;BME280;13818;52.156;5.382;2023-04-06T00:26:32;101509.00;;;4.54;100.00
26043;BME280;13818;52.156;5.382;2023-04-06T00:29:00;101506.41;;;4.50;100.00
26043;BME280;13818;52.156;5.382;2023-04-06T00:31:36;101496.75;;;4.47;100.00
26043;BME280;13818;52.156;5.382;2023-04-06T00:34:05;101495.88;;;4.48;100.00
26043;BME280;13818;52.156;5.382;2023-04-06T00:36:38;101493.25;;;4.47;100.00
26043;BME280;13818;52.156;5.382;2023-04-06T00:39:09;101502.09;;;4.43;100.00
26043;BME280;13818;52.156;5.382;2023-04-06T00:41:38;101487.16;;;4.38;100.00
26043;BME280;13818;52.156;5.382;2023-04-06T00:44:06;101488.97;;;4.35;100.00
26043;BME280;13818;52.156;5.382;2023-04-06T00:46:34;101486.38;;;4.32;100.00
26043;BME280;13818;52.156;5.382;2023-04-06T00:49:02;101481.09;;;4.32;100.00
26043;BME280;13818;52.156;5.382;2023-04-06T00:51:31;101473.22;;;4.29;100.00
26043;BME280;13818;52.156;5.382;2023-04-06T00:53:59;101476.75;;;4.28;100.00
26043;BME280;13818;52.156;5.382;2023-04-06T00:56:32;101471.44;;;4.26;100.00
26043;BME280;13818;52.156;5.382;2023-04-06T00:59:02;101473.28;;;4.22;100.00
26043;BME280;13818;52.156;5.382;2023-04-06T01:01:30;101470.69;;;4.16;100.00
26043;BME280;13818;52.156;5.382;2023-04-06T01:03:58;101470.69;;;4.16;100.00
26043;BME280;13818;52.156;5.382;2023-04-06T01:06:28;101460.13;;;4.15;100.00
26043;BME280;13818;52.156;5.382;2023-04-06T01:09:00;101467.19;;;4.13;100.00
26043;BME280;13818;52.156;5.382;2023-04-06T01:11:30;101455.78;;;4.09;100.00
26043;BME280;13818;52.156;5.382;2023-04-06T01:14:00;101461.03;;;4.14;100.00
26043;BME280;13818;52.156;5.382;2023-04-06T01:16:28;101455.75;;;4.15;100.00
26043;BME280;13818;52.156;5.382;2023-04-06T01:18:58;101447.00;;;4.10;100.00
26043;BME280;13818;52.156;5.382;2023-04-06T01:21:27;101448.75;;;4.08;100.00
26043;BME280;13818;52.156;5.382;2023-04-06T01:23:58;101440.00;;;4.04;100.00
26043;BME280;13818;52.156;5.382;2023-04-06T01:26:30;101442.69;;;4.01;100.00
26043;BME280;13818;52.156;5.382;2023-04-06T01:29:00;101441.78;;;4.02;100.00
26043;BME280;13818;52.156;5.382;2023-04-06T01:31:30;101438.25;;;4.03;100.00
26043;BME280;13818;52.156;5.382;2023-04-06T01:33:57;101438.25;;;4.05;100.00
26043;BME280;13818;52.156;5.382;2023-04-06T01:36:25;101432.94;;;4.08;100.00
26043;BME280;13818;52.156;5.382;2023-04-06T01:39:00;101425.03;;;4.06;100.00
26043;BME280;13818;52.156;5.382;2023-04-06T01:41:38;101424.09;;;4.14;100.00
26043;BME280;13818;52.156;5.382;2023-04-06T01:44:15;101426.69;;;4.20;100.00
26043;BME280;13818;52.156;5.382;2023-04-06T01:46:54;101422.28;;;4.16;100.00
26043;BME280;13818;52.156;5.382;2023-04-06T01:49:28;101417.03;;;4.14;100.00
26043;BME280;13818;52.156;5.382;2023-04-06T01:51:59;101419.66;;;4.17;100.00
26043;BME280;13818;52.156;5.382;2023-04-06T01:54:31;101408.25;;;4.14;100.00
26043;BME280;13818;52.156;5.382;2023-04-06T01:57:03;101401.16;;;4.19;100.00
26043;BME280;13818;52.156;5.382;2023-04-06T01:59:35;101401.13;;;4.22;100.00
26043;BME280;13818;52.156;5.382;2023-04-06T02:02:11;101403.75;;;4.22;100.00
26043;BME280;13818;52.156;5.382;2023-04-06T02:04:39;101407.28;;;4.21;100.00
26043;BME280;13818;52.156;5.382;2023-04-06T02:07:07;101400.25;;;4.21;100.00
26043;BME280;13818;52.156;5.382;2023-04-06T02:09:36;101395.00;;;4.21;100.00
26043;BME280;13818;52.156;5.382;2023-04-06T02:12:06;101394.91;;;4.26;100.00
26043;BME280;13818;52.156;5.382;2023-04-06T02:14:34;101401.09;;;4.27;100.00
26043;BME280;13818;52.156;5.382;2023-04-06T02:17:01;101382.63;;;4.27;100.00
26043;BME280;13818;52.156;5.382;2023-04-06T02:19:30;101385.28;;;4.25;100.00
26043;BME280;13818;52.156;5.382;2023-04-06T02:21:57;101382.66;;;4.22;100.00
26043;BME280;13818;52.156;5.382;2023-04-06T02:24:24;101381.78;;;4.21;100.00
26043;BME280;13818;52.156;5.382;2023-04-06T02:26:56;101377.38;;;4.22;100.00
26043;BME280;13818;52.156;5.382;2023-04-06T02:29:29;101381.72;;;4.26;100.00
26043;BME280;13818;52.156;5.382;2023-04-06T02:31:58;101380.00;;;4.23;100.00
26043;BME280;13818;52.156;5.382;2023-04-06T02:34:35;101372.06;;;4.23;100.00
26043;BME280;13818;52.156;5.382;2023-04-06T02:37:08;101373.81;;;4.24;100.00
26043;BME280;13818;52.156;5.382;2023-04-06T02:39:38;101380.88;;;4.24;100.00
26043;BME280;13818;52.156;5.382;2023-04-06T02:42:12;101367.66;;;4.26;100.00
26043;BME280;13818;52.156;5.382;2023-04-06T02:44:47;101370.28;;;4.27;100.00
26043;BME280;13818;52.156;5.382;2023-04-06T02:47:17;101358.00;;;4.24;100.00
26043;BME280;13818;52.156;5.382;2023-04-06T02:49:48;101356.19;;;4.28;100.00
26043;BME280;13818;52.156;5.382;2023-04-06T02:52:19;101351.84;;;4.26;100.00
26043;BME280;13818;52.156;5.382;2023-04-06T02:54:49;101350.97;;;4.25;100.00
26043;BME280;13818;52.156;5.382;2023-04-06T02:57:21;101352.72;;;4.24;100.00
26043;BME280;13818;52.156;5.382;2023-04-06T02:59:52;101350.06;;;4.24;100.00
26043;BME280;13818;52.156;5.382;2023-04-06T03:02:27;101347.41;;;4.28;100.00
26043;BME280;13818;52.156;5.382;2023-04-06T03:05:01;101340.38;;;4.28;100.00
26043;BME280;13818;52.156;5.382;2023-04-06T03:07:39;101346.50;;;4.30;100.00
26043;BME280;13818;52.156;5.382;2023-04-06T03:10:09;101344.72;;;4.31;100.00
26043;BME280;13818;52.156;5.382;2023-04-06T03:12:38;101331.53;;;4.31;100.00
26043;BME280;13818;52.156;5.382;2023-04-06T03:15:09;101338.53;;;4.33;100.00
26043;BME280;13818;52.156;5.382;2023-04-06T03:17:38;101335.88;;;4.35;100.00
26043;BME280;13818;52.156;5.382;2023-04-06T03:20:06;101338.50;;;4.38;100.00
26043;BME280;13818;52.156;5.382;2023-04-06T03:22:33;101342.00;;;4.38;100.00
26043;BME280;13818;52.156;5.382;2023-04-06T03:25:09;101328.78;;;4.38;100.00
26043;BME280;13818;52.156;5.382;2023-04-06T03:27:38;101330.56;;;4.38;100.00
26043;BME280;13818;52.156;5.382;2023-04-06T03:30:09;101326.13;;;4.42;100.00
26043;BME280;13818;52.156;5.382;2023-04-06T03:32:39;101327.88;;;4.43;100.00
26043;BME280;13818;52.156;5.382;2023-04-06T03:35:10;101324.31;;;4.47;100.00
26043;BME280;13818;52.156;5.382;2023-04-06T03:37:37;101326.91;;;4.48;100.00
26043;BME280;13818;52.156;5.382;2023-04-06T03:40:05;101331.28;;;4.51;100.00
26043;BME280;13818;52.156;5.382;2023-04-06T03:42:35;101327.78;;;4.50;100.00
26043;BME280;13818;52.156;5.382;2023-04-06T03:45:05;101323.34;;;4.54;100.00
26043;BME280;13818;52.156;5.382;2023-04-06T03:47:40;101317.13;;;4.56;100.00
26043;BME280;13818;52.156;5.382;2023-04-06T03:50:13;101317.13;;;4.56;100.00
26043;BME280;13818;52.156;5.382;2023-04-06T03:52:47;101322.47;;;4.52;100.00
26043;BME280;13818;52.156;5.382;2023-04-06T03:55:15;101309.25;;;4.53;100.00
26043;BME280;13818;52.156;5.382;2023-04-06T03:57:43;101307.50;;;4.54;100.00
26043;BME280;13818;52.156;5.382;2023-04-06T04:00:16;101305.72;;;4.54;100.00
26043;BME280;13818;52.156;5.382;2023-04-06T04:02:45;101303.06;;;4.54;100.00
26043;BME280;13818;52.156;5.382;2023-04-06T04:05:16;101306.56;;;4.58;100.00
26043;BME280;13818;52.156;5.382;2023-04-06T04:07:46;101302.09;;;4.62;100.00
26043;BME280;13818;52.156;5.382;2023-04-06T04:10:19;101302.97;;;4.62;100.00
26043;BME280;13818;52.156;5.382;2023-04-06T04:12:48;101305.59;;;4.62;100.00
26043;BME280;13818;52.156;5.382;2023-04-06T04:15:17;101303.84;;;4.64;100.00
26043;BME280;13818;52.156;5.382;2023-04-06T04:17:45;101303.84;;;4.64;100.00
26043;BME280;13818;52.156;5.382;2023-04-06T04:20:17;101303.81;;;4.66;100.00
26043;BME280;13818;52.156;5.382;2023-04-06T04:22:46;101307.31;;;4.66;100.00
26043;BME280;13818;52.156;5.382;2023-04-06T04:25:14;101299.38;;;4.66;100.00
26043;BME280;13818;52.156;5.382;2023-04-06T04:27:46;101307.31;;;4.65;100.00
26043;BME280;13818;52.156;5.382;2023-04-06T04:30:14;101309.94;;;4.68;100.00
26043;BME280;13818;52.156;5.382;2023-04-06T04:32:42;101315.22;;;4.68;100.00
26043;BME280;13818;52.156;5.382;2023-04-06T04:35:10;101304.66;;;4.68;100.00
26043;BME280;13818;52.156;5.382;2023-04-06T04:37:40;101301.13;;;4.67;100.00
26043;BME280;13818;52.156;5.382;2023-04-06T04:40:10;101300.28;;;4.67;100.00
26043;BME280;13818;52.156;5.382;2023-04-06T04:42:38;101301.19;;;4.64;100.00
26043;BME280;13818;52.156;5.382;2023-04-06T04:45:07;101308.22;;;4.64;100.00
26043;BME280;13818;52.156;5.382;2023-04-06T04:47:37;101297.69;;;4.62;100.00
26043;BME280;13818;52.156;5.382;2023-04-06T04:50:11;101297.69;;;4.62;100.00
26043;BME280;13818;52.156;5.382;2023-04-06T04:52:39;101296.81;;;4.62;100.00
26043;BME280;13818;52.156;5.382;2023-04-06T04:55:07;101297.69;;;4.62;100.00
26043;BME280;13818;52.156;5.382;2023-04-06T04:57:35;101308.22;;;4.65;100.00
26043;BME280;13818;52.156;5.382;2023-04-06T05:00:06;101307.31;;;4.65;100.00
26043;BME280;13818;52.156;5.382;2023-04-06T05:02:36;101299.38;;;4.66;100.00
26043;BME280;13818;52.156;5.382;2023-04-06T05:05:11;101298.47;;;4.70;100.00
26043;BME280;13818;52.156;5.382;2023-04-06T05:07:40;101299.34;;;4.69;100.00
26043;BME280;13818;52.156;5.382;2023-04-06T05:10:11;101292.25;;;4.73;100.00
26043;BME280;13818;52.156;5.382;2023-04-06T05:12:42;101300.09;;;4.79;100.00
26043;BME280;13818;52.156;5.382;2023-04-06T05:15:09;101297.41;;;4.82;100.00
26043;BME280;13818;52.156;5.382;2023-04-06T05:17:37;101290.31;;;4.86;100.00
26043;BME280;13818;52.156;5.382;2023-04-06T05:20:09;101289.31;;;4.92;100.00
26043;BME280;13818;52.156;5.382;2023-04-06T05:22:38;101295.44;;;4.97;100.00
26043;BME280;13818;52.156;5.382;2023-04-06T05:25:05;101285.66;;;5.02;100.00
26043;BME280;13818;52.156;5.382;2023-04-06T05:27:44;101294.31;;;5.10;100.00
26043;BME280;13818;52.156;5.382;2023-04-06T05:30:14;101291.56;;;5.18;100.00
26043;BME280;13818;52.156;5.382;2023-04-06T05:32:45;101293.22;;;5.24;100.00
26043;BME280;13818;52.156;5.382;2023-04-06T05:35:16;101286.13;;;5.27;100.00
26043;BME280;13818;52.156;5.382;2023-04-06T05:37:55;101286.03;;;5.32;100.00
26043;BME280;13818;52.156;5.382;2023-04-06T05:40:33;101287.66;;;5.41;100.00
26043;BME280;13818;52.156;5.382;2023-04-06T05:43:06;101289.31;;;5.46;100.00
26043;BME280;13818;52.156;5.382;2023-04-06T05:45:36;101283.09;;;5.49;100.00
26043;BME280;13818;52.156;5.382;2023-04-06T05:48:11;101283.66;;;5.66;100.00
26043;BME280;13818;52.156;5.382;2023-04-06T05:50:41;101277.06;;;5.89;100.00
26043;BME280;13818;52.156;5.382;2023-04-06T05:53:14;101284.19;;;6.31;100.00
26043;BME280;13818;52.156;5.382;2023-04-06T05:55:45;101276.59;;;6.56;100.00
26043;BME280;13818;52.156;5.382;2023-04-06T05:58:12;101286.63;;;6.40;100.00
26043;BME280;13818;52.156;5.382;2023-04-06T06:00:42;101276.06;;;6.39;100.00
26043;BME280;13818;52.156;5.382;2023-04-06T06:03:12;101280.78;;;6.65;100.00
26043;BME280;13818;52.156;5.382;2023-04-06T06:05:43;101283.97;;;6.81;100.00
26043;BME280;13818;52.156;5.382;2023-04-06T06:08:19;101283.53;;;6.60;100.00
26043;BME280;13818;52.156;5.382;2023-04-06T06:10:48;101286.19;;;6.60;100.00
26043;BME280;13818;52.156;5.382;2023-04-06T06:13:18;101278.47;;;6.51;100.00
26043;BME280;13818;52.156;5.382;2023-04-06T06:15:46;101274.78;;;6.58;100.00
26043;BME280;13818;52.156;5.382;2023-04-06T06:18:14;101280.56;;;6.76;100.00
26043;BME280;13818;52.156;5.382;2023-04-06T06:20:41;101274.50;;;6.69;100.00
26043;BME280;13818;52.156;5.382;2023-04-06T06:23:08;101277.56;;;6.52;100.00
26043;BME280;13818;52.156;5.382;2023-04-06T06:25:40;101276.06;;;6.39;100.00
26043;BME280;13818;52.156;5.382;2023-04-06T06:28:08;101268.94;;;6.42;100.00
26043;BME280;13818;52.156;5.382;2023-04-06T06:30:37;101277.75;;;6.43;100.00
26043;BME280;13818;52.156;5.382;2023-04-06T06:33:05;101273.38;;;6.42;100.00
26043;BME280;13818;52.156;5.382;2023-04-06T06:35:36;101276.00;;;6.43;100.00
26043;BME280;13818;52.156;5.382;2023-04-06T06:38:03;101271.56;;;6.44;100.00
26043;BME280;13818;52.156;5.382;2023-04-06T06:40:31;101274.16;;;6.45;100.00
26043;BME280;13818;52.156;5.382;2023-04-06T06:43:00;101273.00;;;6.59;100.00
26043;BME280;13818;52.156;5.382;2023-04-06T06:45:28;101274.56;;;6.67;100.00
26043;BME280;13818;52.156;5.382;2023-04-06T06:47:56;101267.16;;;6.82;100.00
26043;BME280;13818;52.156;5.382;2023-04-06T06:50:25;101277.34;;;6.99;100.00
26043;BME280;13818;52.156;5.382;2023-04-06T06:52:53;101271.56;;;7.19;100.00
26043;BME280;13818;52.156;5.382;2023-04-06T06:55:21;101281.88;;;7.30;100.00
26043;BME280;13818;52.156;5.382;2023-04-06T06:57:57;101275.09;;;7.54;100.00
26043;BME280;13818;52.156;5.382;2023-04-06T07:00:31;101276.03;;;7.85;100.00
26043;BME280;13818;52.156;5.382;2023-04-06T07:02:59;101274.81;;;7.96;100.00
26043;BME280;13818;52.156;5.382;2023-04-06T07:05:26;101279.09;;;8.02;100.00
26043;BME280;13818;52.156;5.382;2023-04-06T07:07:54;101265.03;;;7.98;100.00
26043;BME280;13818;52.156;5.382;2023-04-06T07:10:22;101269.81;;;7.86;100.00
26043;BME280;13818;52.156;5.382;2023-04-06T07:12:49;101273.94;;;7.96;100.00
26043;BME280;13818;52.156;5.382;2023-04-06T07:15:20;101260.97;;;7.85;100.00
26043;BME280;13818;52.156;5.382;2023-04-06T07:17:52;101255.97;;;7.74;100.00
26043;BME280;13818;52.156;5.382;2023-04-06T07:20:22;101256.25;;;7.63;100.00
26043;BME280;13818;52.156;5.382;2023-04-06T07:22:50;101258.06;;;7.61;100.00
26043;BME280;13818;52.156;5.382;2023-04-06T07:25:18;101255.47;;;7.60;100.00
26043;BME280;13818;52.156;5.382;2023-04-06T07:27:45;101258.13;;;7.60;100.00
26043;BME280;13818;52.156;5.382;2023-04-06T07:30:14;101260.09;;;7.53;100.00
26043;BME280;13818;52.156;5.382;2023-04-06T07:32:41;101258.34;;;7.52;100.00
26043;BME280;13818;52.156;5.382;2023-04-06T07:35:10;101252.19;;;7.50;100.00
26043;BME280;13818;52.156;5.382;2023-04-06T07:37:38;101253.22;;;7.44;100.00
26043;BME280;13818;52.156;5.382;2023-04-06T07:40:06;101260.09;;;7.53;100.00
26043;BME280;13818;52.156;5.382;2023-04-06T07:42:34;101262.69;;;7.55;100.00
26043;BME280;13818;52.156;5.382;2023-04-06T07:45:02;101257.63;;;7.45;100.00
26043;BME280;13818;52.156;5.382;2023-04-06T07:47:30;101244.91;;;7.58;100.00
26043;BME280;13818;52.156;5.382;2023-04-06T07:50:00;101248.56;;;7.54;100.00
26043;BME280;13818;52.156;5.382;2023-04-06T07:52:31;101256.47;;;7.56;100.00
26043;BME280;13818;52.156;5.382;2023-04-06T07:54:58;101247.72;;;7.52;100.00
26043;BME280;13818;52.156;5.382;2023-04-06T07:57:28;101258.84;;;7.67;100.00
26043;BME280;13818;52.156;5.382;2023-04-06T07:59:57;101251.66;;;7.70;100.00
26043;BME280;13818;52.156;5.382;2023-04-06T08:02:26;101254.63;;;7.91;100.00
26043;BME280;13818;52.156;5.382;2023-04-06T08:04:57;101260.00;;;7.88;100.00
26043;BME280;13818;52.156;5.382;2023-04-06T08:07:24;101260.75;;;7.93;100.00
26043;BME280;13818;52.156;5.382;2023-04-06T08:09:54;101263.22;;;7.99;100.00
26043;BME280;13818;52.156;5.382;2023-04-06T08:12:22;101263.09;;;8.04;100.00
26043;BME280;13818;52.156;5.382;2023-04-06T08:14:50;101259.50;;;8.06;100.00
26043;BME280;13818;52.156;5.382;2023-04-06T08:17:21;101258.53;;;8.09;100.00
26043;BME280;13818;52.156;5.382;2023-04-06T08:19:51;101257.75;;;8.05;100.00
26043;BME280;13818;52.156;5.382;2023-04-06T08:22:18;101258.47;;;8.12;100.00
26043;BME280;13818;52.156;5.382;2023-04-06T08:24:48;101258.53;;;8.09;100.00
26043;BME280;13818;52.156;5.382;2023-04-06T08:27:17;101255.88;;;8.09;100.00
26043;BME280;13818;52.156;5.382;2023-04-06T08:29:47;101259.19;;;8.17;100.00
26043;BME280;13818;52.156;5.382;2023-04-06T08:32:14;101250.88;;;8.28;100.00
26043;BME280;13818;52.156;5.382;2023-04-06T08:34:44;101252.41;;;8.37;100.00
26043;BME280;13818;52.156;5.382;2023-04-06T08:37:12;101258.50;;;8.40;100.00
26043;BME280;13818;52.156;5.382;2023-04-06T08:39:44;101258.22;;;8.50;100.00
26043;BME280;13818;52.156;5.382;2023-04-06T08:42:18;101253.50;;;8.59;100.00
26043;BME280;13818;52.156;5.382;2023-04-06T08:44:47;101246.78;;;8.76;100.00
26043;BME280;13818;52.156;5.382;2023-04-06T08:47:18;101245.56;;;8.86;100.00
26043;BME280;13818;52.156;5.382;2023-04-06T08:49:45;101248.06;;;8.64;100.00
26043;BME280;13818;52.156;5.382;2023-04-06T08:52:14;101248.53;;;8.77;100.00
26043;BME280;13818;52.156;5.382;2023-04-06T08:54:45;101244.38;;;8.68;100.00
26043;BME280;13818;52.156;5.382;2023-04-06T08:57:13;101245.34;;;8.94;100.00
26043;BME280;13818;52.156;5.382;2023-04-06T08:59:43;101247.47;;;9.09;100.00
26043;BME280;13818;52.156;5.382;2023-04-06T09:02:16;101254.38;;;9.15;100.00
26043;BME280;13818;52.156;5.382;2023-04-06T09:04:48;101247.84;;;9.25;100.00
26043;BME280;13818;52.156;5.382;2023-04-06T09:07:24;101259.13;;;9.32;100.00
26043;BME280;13818;52.156;5.382;2023-04-06T09:09:55;101256.81;;;9.48;100.00
26043;BME280;13818;52.156;5.382;2023-04-06T09:12:23;101252.28;;;9.50;100.00
26043;BME280;13818;52.156;5.382;2023-04-06T09:14:52;101254.31;;;9.69;100.00
26043;BME280;13818;52.156;5.382;2023-04-06T09:17:23;101255.19;;;9.93;100.00
26043;BME280;13818;52.156;5.382;2023-04-06T09:19:52;101262.28;;;9.94;100.00
26043;BME280;13818;52.156;5.382;2023-04-06T09:22:20;101257.13;;;10.13;100.00
26043;BME280;13818;52.156;5.382;2023-04-06T09:24:49;101262.00;;;10.25;100.00
26043;BME280;13818;52.156;5.382;2023-04-06T09:27:29;101258.97;;;10.11;100.00
26043;BME280;13818;52.156;5.382;2023-04-06T09:30:09;101252.41;;;10.20;100.00
26043;BME280;13818;52.156;5.382;2023-04-06T09:32:51;101256.06;;;10.17;100.00
26043;BME280;13818;52.156;5.382;2023-04-06T09:35:19;101261.22;;;10.22;100.00
26043;BME280;13818;52.156;5.382;2023-04-06T09:37:48;101253.53;;;10.14;100.00
26043;BME280;13818;52.156;5.382;2023-04-06T09:40:19;101252.94;;;10.30;100.00
26043;BME280;13818;52.156;5.382;2023-04-06T09:42:52;101258.63;;;10.20;100.00
26043;BME280;13818;52.156;5.382;2023-04-06T09:45:25;101261.41;;;10.17;100.00
26043;BME280;13818;52.156;5.382;2023-04-06T09:47:55;101263.66;;;10.28;100.00
26043;BME280;13818;52.156;5.382;2023-04-06T09:50:25;101263.31;;;10.39;100.00
26043;BME280;13818;52.156;5.382;2023-04-06T09:52:57;101263.03;;;10.45;100.00
26043;BME280;13818;52.156;5.382;2023-04-06T09:55:30;101261.31;;;10.66;100.00
26043;BME280;13818;52.156;5.382;2023-04-06T09:58:02;101273.63;;;10.70;100.00
26043;BME280;13818;52.156;5.382;2023-04-06T10:00:45;101264.75;;;10.70;100.00
26043;BME280;13818;52.156;5.382;2023-04-06T10:03:20;101267.06;;;10.79;100.00
26043;BME280;13818;52.156;5.382;2023-04-06T10:05:56;101253.53;;;11.06;100.00
26043;BME280;13818;52.156;5.382;2023-04-06T10:08:27;101264.88;;;11.11;100.00
26043;BME280;13818;52.156;5.382;2023-04-06T10:10:55;101258.94;;;11.04;100.00
26043;BME280;13818;52.156;5.382;2023-04-06T10:13:23;101262.69;;;10.99;100.00
26043;BME280;13818;52.156;5.382;2023-04-06T10:16:01;101260.34;;;10.91;100.00
26043;BME280;13818;52.156;5.382;2023-04-06T10:18:31;101271.47;;;11.23;100.00
26043;BME280;13818;52.156;5.382;2023-04-06T10:21:06;101258.94;;;11.25;100.00
26043;BME280;13818;52.156;5.382;2023-04-06T10:23:41;101270.03;;;10.94;100.00
26043;BME280;13818;52.156;5.382;2023-04-06T10:26:14;101262.06;;;11.14;100.00
26043;BME280;13818;52.156;5.382;2023-04-06T10:28:43;101264.97;;;11.08;100.00
26043;BME280;13818;52.156;5.382;2023-04-06T10:31:23;101260.06;;;11.19;100.00
26043;BME280;13818;52.156;5.382;2023-04-06T10:33:54;101261.00;;;11.18;100.00
26043;BME280;13818;52.156;5.382;2023-04-06T10:36:26;101256.69;;;10.94;100.00
26043;BME280;13818;52.156;5.382;2023-04-06T10:38:57;101262.53;;;11.03;100.00
26043;BME280;13818;52.156;5.382;2023-04-06T10:41:34;101260.28;;;10.93;100.00
26043;BME280;13818;52.156;5.382;2023-04-06T10:44:03;101257.25;;;10.80;100.00
26043;BME280;13818;52.156;5.382;2023-04-06T10:46:35;101264.13;;;10.85;100.00
26043;BME280;13818;52.156;5.382;2023-04-06T10:49:12;101252.84;;;10.79;100.00
26043;BME280;13818;52.156;5.382;2023-04-06T10:51:39;101261.97;;;10.73;100.00
26043;BME280;13818;52.156;5.382;2023-04-06T10:54:07;101252.28;;;10.48;100.00
26043;BME280;13818;52.156;5.382;2023-04-06T10:56:37;101256.00;;;10.44;100.00
26043;BME280;13818;52.156;5.382;2023-04-06T10:59:05;101259.03;;;10.57;100.00
26043;BME280;13818;52.156;5.382;2023-04-06T11:01:33;101242.59;;;10.46;100.00
26043;BME280;13818;52.156;5.382;2023-04-06T11:04:05;101251.91;;;10.57;100.00
26043;BME280;13818;52.156;5.382;2023-04-06T11:06:34;101239.38;;;10.60;100.00
26043;BME280;13818;52.156;5.382;2023-04-06T11:09:04;101247.31;;;10.39;100.00
26043;BME280;13818;52.156;5.382;2023-04-06T11:11:32;101252.09;;;10.53;100.00
26043;BME280;13818;52.156;5.382;2023-04-06T11:14:00;101260.69;;;10.37;100.00
26043;BME280;13818;52.156;5.382;2023-04-06T11:16:30;101251.44;;;10.46;100.00
26043;BME280;13818;52.156;5.382;2023-04-06T11:19:01;101239.59;;;10.07;100.00
26043;BME280;13818;52.156;5.382;2023-04-06T11:21:35;101246.00;;;10.25;100.00
26043;BME280;13818;52.156;5.382;2023-04-06T11:24:07;101239.47;;;10.10;100.00
26043;BME280;13818;52.156;5.382;2023-04-06T11:26:38;101234.53;;;10.00;100.00
26043;BME280;13818;52.156;5.382;2023-04-06T11:29:06;101237.19;;;10.00;100.00
26043;BME280;13818;52.156;5.382;2023-04-06T11:31:39;101237.72;;;10.09;100.00
26043;BME280;13818;52.156;5.382;2023-04-06T11:34:10;101229.09;;;10.03;100.00
26043;BME280;13818;52.156;5.382;2023-04-06T11:36:45;101228.13;;;10.05;100.00
26043;BME280;13818;52.156;5.382;2023-04-06T11:39:19;101231.69;;;10.28;100.00
26043;BME280;13818;52.156;5.382;2023-04-06T11:41:57;101224.94;;;9.96;100.00
26043;BME280;13818;52.156;5.382;2023-04-06T11:44:30;101221.41;;;9.95;100.00
26043;BME280;13818;52.156;5.382;2023-04-06T11:47:00;101218.22;;;9.85;100.00
26043;BME280;13818;52.156;5.382;2023-04-06T11:49:27;101206.47;;;9.67;100.00
26043;BME280;13818;52.156;5.382;2023-04-06T11:52:00;101216.19;;;9.68;100.00
26043;BME280;13818;52.156;5.382;2023-04-06T11:54:32;101205.25;;;9.76;100.00
26043;BME280;13818;52.156;5.382;2023-04-06T11:57:00;101208.63;;;9.81;100.00
26043;BME280;13818;52.156;5.382;2023-04-06T11:59:28;101209.97;;;9.68;100.00
26043;BME280;13818;52.156;5.382;2023-04-06T12:01:58;101213.81;;;9.84;100.00
26043;BME280;13818;52.156;5.382;2023-04-06T12:04:28;101212.19;;;9.80;100.00
26043;BME280;13818;52.156;5.382;2023-04-06T12:06:58;101207.31;;;9.68;100.00
26043;BME280;13818;52.156;5.382;2023-04-06T12:09:29;101207.66;;;9.58;100.00
26043;BME280;13818;52.156;5.382;2023-04-06T12:12:00;101206.50;;;9.66;100.00
26043;BME280;13818;52.156;5.382;2023-04-06T12:14:30;101200.25;;;9.67;100.00
26043;BME280;13818;52.156;5.382;2023-04-06T12:16:59;101195.16;;;9.60;100.00
26043;BME280;13818;52.156;5.382;2023-04-06T12:19:26;101203.81;;;9.42;100.00
26043;BME280;13818;52.156;5.382;2023-04-06T12:21:58;101195.22;;;9.34;100.00
26043;BME280;13818;52.156;5.382;2023-04-06T12:24:26;101192.50;;;9.35;100.00
26043;BME280;13818;52.156;5.382;2023-04-06T12:26:56;101189.81;;;9.37;100.00
26043;BME280;13818;52.156;5.382;2023-04-06T12:29:27;101187.09;;;9.38;100.00
26043;BME280;13818;52.156;5.382;2023-04-06T12:31:55;101191.31;;;9.44;100.00
26043;BME280;13818;52.156;5.382;2023-04-06T12:34:22;101201.13;;;9.67;100.00
26043;BME280;13818;52.156;5.382;2023-04-06T12:36:49;101195.00;;;9.65;100.00
26043;BME280;13818;52.156;5.382;2023-04-06T12:39:19;101188.16;;;9.33;100.00
26043;BME280;13818;52.156;5.382;2023-04-06T12:41:50;101186.59;;;9.27;100.00
26043;BME280;13818;52.156;5.382;2023-04-06T12:44:17;101188.00;;;9.37;100.00
26043;BME280;13818;52.156;5.382;2023-04-06T12:46:45;101188.50;;;9.49;100.00
26043;BME280;13818;52.156;5.382;2023-04-06T12:49:12;101180.84;;;9.39;100.00
26043;BME280;13818;52.156;5.382;2023-04-06T12:51:42;101173.41;;;9.24;100.00
26043;BME280;13818;52.156;5.382;2023-04-06T12:54:10;101177.50;;;9.07;100.00
26043;BME280;13818;52.156;5.382;2023-04-06T12:56:42;101166.50;;;9.18;100.00
26043;BME280;13818;52.156;5.382;2023-04-06T12:59:10;101170.38;;;9.09;100.00
26043;BME280;13818;52.156;5.382;2023-04-06T13:01:42;101173.25;;;9.28;100.00
26043;BME280;13818;52.156;5.382;2023-04-06T13:04:12;101163.47;;;9.29;100.00